今日のアクセス数

    岡山グライダークラブ活動状況掲示板

岡山グライダークラブ
岡山市浦安南町639-1 岡南飛行場
 使用機:シャイベ式 SF25C型 ファルケ   JA2330
      ヴァレンティン式17E型 タイフーン  JA2342
 練習日:毎日曜日  クラブルーム:電話 086-265-1810
この掲示板は岡山グライダークラブの活動状況をお知らせする掲示板です。
!!!この掲示板は投稿規制をしています。!!!
クラブ関連各種情報は 岡山グライダークラブクラブルーム      を       .
  ブリーフイング情報は  岡山グライダークラブブリーフィングルーム  をご覧下さい。 .
※写真はクリックすると拡大して見ることが出来ます。
岡南飛行場へのアクセス等は 岡南飛行場管理事務所 をご覧ください。
クラブの ホームページ ができました。

!!!最近のコロナ感染拡大に伴い、当面の間、見学者等の受入を中止しております。再開まで今しばらくお待ちください!!!

ページ 1 (1〜10)ホームページへ戻る

09月19日
by OGC at 2021/9/19(日) 22:01:33 No.20210919215925 コメント】  削除 引用
640 x 480 x 142,299バイト
No.1

09月19日
本日の参加者
  会員      11名
  その他      0名


@本日の様子






METAR
RJBK 190000Z VRB02KT 30KM FEW025CU SCT060SC 24/19 Q1014 A2995
RJOB 190000Z 01007KT 330V050 9999 FEW025 SCT045 24/18 Q1015
RJOT 190000Z 04003KT 340V090 9999 FEW020 SCT050 BKN080 23/20 Q1015
RJOA 190000Z 06008KT 9999 FEW025 SCT050 22/17 Q1015
TAF
RJOB 182306Z 1900/2006 03008KT 9999 FEW020
RJOT 182305Z 1900/2006 03006KT 9999 FEW025 SCT045
RJOA 182305Z 1900/2006 06005KT 9999 FEW020 SCT040
      BECMG 1912/1915 34004KT
      BECMG 1921/2000 08005KT

コロナの影響で活動自粛していましたが、本日から感染対策を十分に行いながら徐々に訓練を再開してまいります。
天候は晴れ、風も弱く、久々の訓練再開には最適な天候で、コンディションのいい一日でした。


解散    18:00

1番機  10:50離陸 撤収機  17:45着陸 

SF25C JA2330 ファルケ     10Flt.3h15min  
17E   JA2342 タイフーン    00Flt.0h00min
合計                    10Flt.3h15min

 ハードディスクのエラーのチェックと修復方法    MACデータ復旧の費用

9月12日
by OGC at 2021/9/12(日) 10:49:05 No.20210912104529 コメント】  削除 引用
1219 x 858 x 56,260バイト <この画像は大きいので別画面で表示します>
No.1

09月12日
本日のリモート参加者
  会員      11名
  その他      0名


@本日の様子






METAR
RJBK 120000Z 03003KT 310V070 07KM FEW010CU SCT060SC BKN100AC 25/23 Q1012 A2989
RJOB 120000Z VRB01KT 6000 FEW002 SCT008 BKN/// 23/21 Q1013
RJOT 120000Z 09004KT 7000 VCSH FEW005 SCT060 BKN100 24/23 Q1012
RJOA 120000Z 09003KT 050V130 7000 FEW006 SCT080 BKN/// 23/21 Q1013

TAF
RJOB 112306Z 1200/1306 14005KT 9999 FEW015 SCT025
       BECMG 1300/1303 21005KT
RJOT 112308Z 1200/1306 06005KT 9999 FEW015 SCT025
RJOA 112305Z 1200/1306 14004KT 9999 FEW012 SCT025
       BECMG 1212/1215 34005KT
       BECMG 1221/1300 12006KT


岡山県の緊急事態宣言(9月12日まで)を受け、本日、第17回リモートブリーフィングを開催しました。
9月13日から岡山県まん延防止等重点措置に切り替わりますので、次週、9月19日(日)から感染防止対策を十分に行いながら、徐々に訓練を再開していくことになりました。


集合 10:00 解散    10:25

本日のフライトはありません。

09月05日
by OGC at 2021/9/5(日) 11:06:07 No.20210905105916 コメント】  削除 引用
1026 x 767 x 52,606バイト <この画像は大きいので別画面で表示します>
No.1

09月05日
本日のリモート参加者
  会員       9名
  その他      0名


@本日の様子






METAR
RJBK 050000Z 23003KT 200V270 30KM FEW020CU SCT080AC BKN150AC 24/21 Q1015 A2999
RJOB 050000Z VRB02KT 9999 FEW020 BKN/// 23/19 Q1016
RJOT 050000Z VRB03KT 9999 FEW010 SCT045 BKN180 24/21 Q1016
RJOA 050000Z 34004KT 310V050 9999 FEW025 SCT035 BKN/// 23/18 Q1017

TAF
RJOB 042307Z 0500/0606 35005KT 9999 FEW020 SCT040
    BECMG 0502/0504 22005KT
       BECMG 0509/0511 35005KT
RJOT 042307Z 0500/0606 04004KT 9999 FEW025 SCT035
RJOA 042307Z 0500/0606 28004KT 9999 FEW025
       BECMG 0521/0600 15005KT

岡山県の緊急事態宣言を受け、9月12日まで訓練活動自粛のため、本日、第16回リモートブリーフィングを開催しました。


集合 10:00 解散    10:45

本日のフライトはありません。
08月29日
by OGC at 2021/8/29(日) 11:27:14 No.20210829112337 コメント】  削除 引用
1024 x 768 x 70,564バイト
No.1

08月29日
本日のリモート参加者
  会員       9名
  その他      0名


@本日の様子






METAR
RJBK 290000Z 25009KT FEW035CU SCT120AC 30/24 Q1013 A2994
RJOB 290000Z 29006KT 260V330 9999 FEW020 SCT045 28/23 Q1015
RJOT 290000Z 28007KT 9999 FEW020 29/23 Q1015
RJOA 290000Z 25003KT 200V290 9999 FEW015 BKN030 25/22 Q1016
TAF
RJOB 282307Z 2900/3006 21007KT 9999 FEW020 SCT045
RJOT 282307Z 2900/3006 27010KT 9999 FEW025
RJOA 282306Z 2900/3006 20005KT 9999 FEW025

岡山県の緊急事態宣言を受け、9月12日まで訓練活動を自粛することとしました。
そこで、本日、第15回リモートブリーフィングを開催しました。


集合 10:00 解散    10:30

本日のフライトはありません。
新型コロナウイルス感染拡大に伴う活動自粛について
by OGC at 2021/8/26(木) 23:12:49 No.20210826230747 コメント】  削除 引用

 緊急事態宣言の発出を受け、8月27日〜9月12日までの宣言期間、訓練活動休止とします。
 なお、自粛期間中は前回同様にリモートブリーフィングを実施します。
08月22日
by OGC at 2021/8/22(日) 20:02:22 No.20210822195847 コメント】  削除 引用
1024 x 768 x 70,967バイト
No.1

08月22日
本日の参加者
  会員      15名
  その他      0名


@本日の様子






METAR
RJBK 220000Z VRB01KT 30KM FEW015CU SCT050CU BKN080AC 27/25 Q1012 A2988
RJOB 220000Z VRB02KT 9999 FEW010 SCT060 BKN180 26/23 Q10131
RJOT 220000Z 26003KT 190V320 9999 FEW025 BKN/// 30/23 Q1012
RJOA 220000Z 22004KT 180V270 9999 FEW001 SCT006 BKN035 24/23 Q1013
TAF
RJOB 212308Z 2200/2306 22006KT 8000 -SHRA FEW008 SCT015 BKN025
       TEMPO 2206/2212 4000 SHRA BR BCFG FEW000 BKN008 BKN015
       BECMG 2208/2210 05004KT
       TEMPO 2212/2221 3000 SHRA BR BCFG FEW000 BKN005 BKN010
       BECMG 2221/2300 22005KT
RJOT 212306Z 2200/2306 15004KT 9999 FEW020 BKN045
       BECMG 2200/2202 26005KT
       BECMG 2208/2210 15004KT
       BECMG 2300/2303 28006KT
RJOA 212309Z 2200/2306 22005KT 8000 -SHRA FEW005 SCT008 BKN020
       TEMPO 2200/2206 4000 -SHRA BR BCFG FEW000 BKN008 BKN015
       TEMPO 2206/2210 3000 -SHRA BR BCFG FEW000 BKN008 BKN015
       BECMG 2210/2212 4000 -SHRA BR
       TEMPO 2212/2221 1500 -SHRA BR BCFG FEW000 SCT003 BKN005
       BECMG 2221/2300 9999 NSW

本日の天候は曇り,午後から雨も予想されていましたが、中断することなくフライトができました。
ファルケの耐空検査も終わり、久しぶりに訓練フライトを楽しんでいました。
また、一方、タイフーンは今日から耐空検査前の整備に入りました。


解散    17:00

1番機  11:35離陸 撤収機  12:00着陸 

SF25C JA2330 ファルケ     09Flt.3h25min  
17E   JA2342 タイフーン    00Flt.0h00min
合計                    09Flt.3h25min
08月15日
by OGC at 2021/8/15(日) 22:17:57 No.20210815221117 コメント】  削除 引用
1706 x 960 x 208,616バイト <この画像は大きいので別画面で表示します>
No.1

08月15日
本日の参加者
  会員       5名
  その他      1名


@本日の様子






METAR
RJBK 150000Z 19004KT 25KM FEW020CU SCT030CU BKN080AC 28/22 A2985
RJOB 150000Z 01005KT 340V050 9999 FEW002 BKN080 23/20 Q1011
RJOT 150000Z 02004KT 1500 R26/P2000N -SHRA BR FEW000 SCT001 BKN003 21/21 Q1011
RJOA 150000Z 33003KT 290V360 8000 BCFG FEW000 SCT030 BKN050 22/20 Q1012
TAF
RJOB 142308Z 1500/1606 03005KT 9999 FEW015 SCT030
RJOT 142309Z 1500/1606 03005KT 3000 -SHRA BR BCFG FEW000 SCT005 BKN008
     TEMPO 1500/1501 0700 -SHRA FG FEW000 SCT001 BKN003
     BECMG 1501/1503 9999 NSW FEW005 SCT030 BKN050
RJOA 142306Z 1500/1606 12005KT 9999 FEW015 SCT025 BKN040

本日の天候は曇り所により晴れでした。
盆休みでクラブ活動はお休みでしたが、ファルケの耐空検査を航空局の方の立ち合いの下行いました。



解散    16:00

1番機  11:35離陸 撤収機  12:00着陸 

SF25C JA2330 ファルケ     01Flt.0h25min  
17E   JA2342 タイフーン    00Flt.0h00min
合計                    01Flt.0h25min
08月08日
by OGC at 2021/8/8(日) 23:28:48 No.20210808232526 コメント】  削除 引用
640 x 480 x 139,403バイト
No.1

08月08日
本日の参加者
  会員      16名
  その他      0名


@本日の様子






METAR
RJBK 080000Z 23005KT 180V280 30KM FEW020CU BKN/// 32/24 Q1003 A2963
RJOB 080000Z 23004KT 180V280 9999 FEW020 SCT/// 30/24 Q1004
RJOT 080000Z 30005KT 230V340 9999 FEW020 BKN/// 31/25 Q1004
RJOA 080000Z VRB03KT 9999 FEW020 BKN/// 29/22 Q1005
TAF
RJOB 072310Z 0800/0906 20006KT 9999 FEW020 SCT040
       TEMPO 0803/0809 TS FEW015 FEW020CB SCT025 BKN030
       BECMG 0809/0811 09010KT
       TEMPO 0815/0821 10018G28KT 4000 SHRA BR FEW001 BKN008 BKN015
       BECMG 0821/0900 24025G35KT
RJOT 072312Z 0800/0906 30006KT 9000 -SHRA FEW015 SCT030 BKN045
       TEMPO 0803/0809 -TSRA FEW010 FEW020CB SCT025 BKN035
       BECMG 0805/0807 08006KT
       TEMPO 0812/0818 4000 SHRA BR FEW001 SCT003 BKN008
       BECMG 0818/0821 24018KT
       TEMPO 0821/0906 25028G40KT
RJOA 072310Z 0800/0906 20004KT 9999 FEW015 SCT035
       BECMG 0805/0807 08008KT
       TEMPO 0812/0818 11018G30KT 4000 SHRA BR FEW001 SCT003 BKN008
       TEMPO 0818/0900 3000 +SHRA BR BCFG FEW000 SCT003 BKN005 FEW015CB
       BECMG 0821/0900 26020KT
       TEMPO 0900/0906 26022G32KT

本日の天候は晴れ、夕方には曇りがちになりのちににわか雨と台風の影響で急激に変化して行きました。
連日の高温ですがライセンサーは気温にもめげず、サーマルを探して飛び回っていました。
一方、ファルケは耐空検査の整備や測定作業も終わり、耐空検査前の社内試験まで実施しました。



解散    16:00

1番機  11:10離陸 撤収機  15:55着陸 

SF25C JA2330 ファルケ     00Flt.0h00min  
17E   JA2342 タイフーン    05Flt.2h15min
合計                    05Flt.2h15min
08月01日
by OGC at 2021/8/1(日) 23:19:23 No.20210801231741 コメント】  削除 引用
640 x 480 x 138,361バイト
No.1

08月01日
本日の参加者
  会員      14名
  その他      0名


@本日の様子






METAR
RJOB 010000Z 10004KT 9999 FEW010 SCT015 28/24 Q1004
RJOT 010000Z VRB03KT 9999 FEW030 SCT/// 29/22 Q1003
RJOA 010000Z 10004KT 080V140 9999 FEW030 SCT170 27/22 Q1004
TAF
RJOB 312306Z 0100/0206 12007KT 9999 FEW020 SCT040
RJOT 312305Z 0100/0206 06008KT 9999 FEW025 SCT035
     TEMPO 0103/0109 TS FEW015 FEW020CB SCT025 BKN030
RJOA 312308Z 0100/0206 17005KT 9999 FEW030
     BECMG 0110/0112 32005KT
     BECMG 0118/0121 13005KT

本日の天候は晴れでしたが、あまりにも気温が高いので、2フライトだけでした。
一方、ファルケは耐空検査の整備で、機体の組立まで行いました。



解散    16:00

1番機  11:30離陸 撤収機  13:15着陸 

SF25C JA2330 ファルケ     00Flt.0h00min  
17E   JA2342 タイフーン    02Flt.1h15min
合計                    02Flt.1h15min
07月25日
by OGC at 2021/7/25(日) 23:00:16 No.20210725225523 コメント】  削除 引用
640 x 480 x 137,958バイト
No.1

07月25日
本日の参加者
  会員      15名
  その他      0名


@本日の様子






METAR
RJBK 250000Z 07005KT 030V100 30KM FEW035CU SCT/// 29/23 Q1009 A2981
RJOB 250000Z 09007KT 9999 FEW020 BKN/// 28/22 Q1010
RJOT 250000Z 05005KT 360V090 9999 FEW020 BKN/// 29/22 Q1010
RJOA 250000Z 09007KT 050V130 9999 FEW030 BKN/// 26/20 Q1010
TAF
RJOB  242307Z 2500/2606 18008KT 9999 FEW025
        BECMG 2510/2512 35006KT
        BECMG 2521/2600 18008KT
RJOT 242305Z 2500/2606 07010KT 9999 FEW025
        BECMG 2508/2510 15005KT
RJOA 242306Z 2500/2606 12008KT 9999 FEW025


本日の天候は晴れ、先週のリベンジで長距離フライトに再チャレンジしていました。
タイフーンはこう暑くなると、高度より油温がよく上がります。
一方、ファルケは耐空検査の整備に入り、尾輪のタイヤ交換、補修塗装、グリスアップ等を行いました。



解散    17:00

1番機  10:35離陸 撤収機  16:40着陸 

SF25C JA2330 ファルケ     00Flt.0h00min  
17E   JA2342 タイフーン    06Flt.4h00min
合計                    06Flt.4h00min

 ハードディスクのエラーのチェックと修復方法    MACデータ復旧の費用

ホームページへ 全 55 件 [ 1 2 3 4 5 6 ]

モータースポーツ | 管理者へメール | お知らせ | 一括削除
携帯から使う方法 | ヘルプ | 利用規約 | 違反報告 | 管理パネル



- 無料レンタル掲示板 -